Time;durP1;ratioP1;P1;durP2;ratioP2;P2;SDS_P1;SDS_P2;PMS_P1;PMS_P2;Temp;Humidity;BMP_temperature;BMP_pressure;BME280_temperature;BME280_humidity;BME280_pressure;Samples;Min_cycle;Max_cycle;Signal;HPM_P1;HPM_P2
2022/10/02 00:01:51;;;;;;;;;;;;;;;12.34;100.00;101375.91;5002094;28;20056;-40
2022/10/02 00:04:31;;;;;;;;;;;;;;;12.29;100.00;101373.69;5006341;28;20084;-42
2022/10/02 00:06:59;;;;;;;;;;;;;;;12.24;100.00;101378.69;5000034;28;20318;-41
2022/10/02 00:09:45;;;;;;;;;;;;;;;12.20;100.00;101366.59;5007659;28;19975;-40
2022/10/02 00:12:13;;;;;;;;;;;;;;;12.11;100.00;101375.59;5014447;28;20039;-43
2022/10/02 00:14:40;;;;;;;;;;;;;;;12.04;100.00;101375.41;5016095;28;19917;-42
2022/10/02 00:17:08;;;;;;;;;;;;;;;11.99;100.00;101375.03;5016839;28;19925;-43
2022/10/02 00:19:34;;;;;;;;;;;;;;;11.93;100.00;101375.66;5016957;28;19928;-40
2022/10/02 00:22:22;;;;;;;;;;;;;;;11.90;100.00;101374.09;5012342;28;19917;-41
2022/10/02 00:24:50;;;;;;;;;;;;;;;11.90;100.00;101386.66;5014844;28;19987;-42
2022/10/02 00:27:45;;;;;;;;;;;;;;;11.88;100.00;101386.81;5016408;28;20383;-41
2022/10/02 00:30:13;;;;;;;;;;;;;;;11.87;100.00;101379.75;5014666;28;20419;-41
2022/10/02 00:32:57;;;;;;;;;;;;;;;11.82;100.00;101381.25;5016371;28;19917;-40
2022/10/02 00:35:28;;;;;;;;;;;;;;;11.83;100.00;101389.13;5006491;28;20066;-41
2022/10/02 00:37:56;;;;;;;;;;;;;;;11.84;100.00;101382.75;5013328;28;20268;-42
2022/10/02 00:40:40;;;;;;;;;;;;;;;11.88;100.00;101389.50;5010021;28;19924;-41
2022/10/02 00:43:23;;;;;;;;;;;;;;;11.90;100.00;101386.66;5008264;28;19944;-41
2022/10/02 00:46:02;;;;;;;;;;;;;;;11.90;100.00;101382.13;5014320;28;19913;-41
2022/10/02 00:48:39;;;;;;;;;;;;;;;11.92;100.00;101384.69;5009862;28;20375;-40
2022/10/02 00:51:23;;;;;;;;;;;;;;;11.96;100.00;101385.22;5012484;28;19917;-40
2022/10/02 00:53:55;;;;;;;;;;;;;;;11.96;100.00;101383.38;5004248;28;19927;-41
2022/10/02 00:56:39;;;;;;;;;;;;;;;11.96;100.00;101383.38;4998835;28;19922;-42
2022/10/02 00:59:04;;;;;;;;;;;;;;;11.97;100.00;101378.88;5005934;28;20453;-40
2022/10/02 01:01:49;;;;;;;;;;;;;;;11.99;100.00;101382.22;5007461;28;20016;-43
2022/10/02 01:04:31;;;;;;;;;;;;;;;11.97;100.00;101386.91;5008944;28;20011;-40
2022/10/02 01:06:57;;;;;;;;;;;;;;;11.97;100.00;101381.56;5012820;28;19924;-39
2022/10/02 01:09:23;;;;;;;;;;;;;;;11.96;100.00;101377.19;4995193;28;19917;-40
2022/10/02 01:11:48;;;;;;;;;;;;;;;11.96;100.00;101385.22;4997518;28;20013;-39
2022/10/02 01:14:14;;;;;;;;;;;;;;;11.97;100.00;101381.56;4995182;28;19929;-40
2022/10/02 01:16:41;;;;;;;;;;;;;;;11.98;100.00;101391.25;5004031;28;20265;-40
2022/10/02 01:19:18;;;;;;;;;;;;;;;11.97;100.00;101377.03;5012403;28;19917;-39
2022/10/02 01:21:46;;;;;;;;;;;;;;;11.97;100.00;101370.84;5009953;28;19924;-39
2022/10/02 01:24:15;;;;;;;;;;;;;;;11.97;100.00;101382.38;5015106;28;19979;-40
2022/10/02 01:26:41;;;;;;;;;;;;;;;11.98;100.00;101383.22;5015280;28;20063;-40
2022/10/02 01:29:06;;;;;;;;;;;;;;;11.99;100.00;101380.38;5015350;28;20396;-40
2022/10/02 01:31:31;;;;;;;;;;;;;;;12.00;100.00;101378.53;5016417;28;19931;-42
2022/10/02 01:33:56;;;;;;;;;;;;;;;12.01;100.00;101388.25;5015517;28;20351;-41
2022/10/02 01:36:22;;;;;;;;;;;;;;;12.03;100.00;101391.63;5019512;28;19921;-40
2022/10/02 01:38:48;;;;;;;;;;;;;;;12.03;100.00;101391.63;5019019;28;20446;-40
2022/10/02 01:41:14;;;;;;;;;;;;;;;12.02;100.00;101387.28;5012186;28;20314;-41
2022/10/02 01:43:41;;;;;;;;;;;;;;;12.07;100.00;101393.00;5018474;28;19913;-39
2022/10/02 01:46:12;;;;;;;;;;;;;;;12.10;100.00;101381.94;5019168;28;19939;-42
2022/10/02 01:48:56;;;;;;;;;;;;;;;12.17;100.00;101388.38;5020093;28;20281;-41
2022/10/02 01:51:30;;;;;;;;;;;;;;;12.23;100.00;101386.88;5020280;28;20072;-42
2022/10/02 01:54:04;;;;;;;;;;;;;;;12.25;100.00;101396.47;5018115;28;19913;-40
2022/10/02 01:56:39;;;;;;;;;;;;;;;12.25;100.00;101391.09;5020639;28;19987;-40
2022/10/02 01:59:28;;;;;;;;;;;;;;;12.26;100.00;101397.28;5019331;28;19913;-42
2022/10/02 02:02:08;;;;;;;;;;;;;;;12.27;100.00;101391.78;5018426;28;20269;-41
2022/10/02 02:04:46;;;;;;;;;;;;;;;12.24;100.00;101393.94;5018403;28;20363;-42
2022/10/02 02:07:24;;;;;;;;;;;;;;;12.28;100.00;101400.63;5014887;28;19925;-41
2022/10/02 02:10:10;;;;;;;;;;;;;;;12.31;100.00;101408.38;5011361;28;21527;-41
2022/10/02 02:12:38;;;;;;;;;;;;;;;12.35;100.00;101412.41;5007311;28;19917;-42
2022/10/02 02:15:07;;;;;;;;;;;;;;;12.40;100.00;101409.25;5019394;28;19925;-40
2022/10/02 02:17:47;;;;;;;;;;;;;;;12.37;100.00;101396.16;5019625;28;19921;-42
2022/10/02 02:20:15;;;;;;;;;;;;;;;12.44;100.00;101416.81;5018144;28;19933;-41
2022/10/02 02:22:44;;;;;;;;;;;;;;;12.43;100.00;101407.09;5006584;28;19917;-40
2022/10/02 02:25:12;;;;;;;;;;;;;;;12.43;100.00;101404.41;5019380;28;19936;-39
2022/10/02 02:27:40;;;;;;;;;;;;;;;12.44;100.00;101407.91;5018386;28;19920;-41
2022/10/02 02:30:10;;;;;;;;;;;;;;;12.43;100.00;101406.25;5017923;28;19921;-42
2022/10/02 02:32:38;;;;;;;;;;;;;;;12.45;100.00;101410.44;5014415;28;19940;-40
2022/10/02 02:35:10;;;;;;;;;;;;;;;12.47;100.00;101399.56;5018928;28;19921;-43
2022/10/02 02:37:37;;;;;;;;;;;;;;;12.46;100.00;101411.31;5013271;28;19921;-40
2022/10/02 02:40:08;;;;;;;;;;;;;;;12.43;100.00;101404.41;5019376;28;20752;-41
2022/10/02 02:42:37;;;;;;;;;;;;;;;12.46;100.00;101396.06;5015764;28;20339;-40
2022/10/02 02:45:10;;;;;;;;;;;;;;;12.48;100.00;101403.94;5006837;28;19913;-41
2022/10/02 02:47:47;;;;;;;;;;;;;;;12.48;100.00;101406.63;5018242;28;20336;-42
2022/10/02 02:50:15;;;;;;;;;;;;;;;12.53;100.00;101415.00;5018233;28;19974;-40
2022/10/02 02:52:44;;;;;;;;;;;;;;;12.56;100.00;101406.66;5015977;28;20239;-40
2022/10/02 02:55:16;;;;;;;;;;;;;;;12.58;100.00;101409.19;5016672;28;19921;-43
2022/10/02 02:57:52;;;;;;;;;;;;;;;12.59;100.00;101409.03;5018077;28;20380;-42
2022/10/02 03:00:18;;;;;;;;;;;;;;;12.59;100.00;101417.06;5017695;28;19916;-41
2022/10/02 03:02:44;;;;;;;;;;;;;;;12.57;100.00;101410.16;5018947;28;19925;-42
2022/10/02 03:05:11;;;;;;;;;;;;;;;12.53;100.00;101403.47;5033315;28;19981;-43
2022/10/02 03:07:36;;;;;;;;;;;;;;;12.52;100.00;101407.13;5017947;28;19987;-42
2022/10/02 03:10:10;;;;;;;;;;;;;;;12.50;100.00;101407.28;5018876;28;19914;-41
2022/10/02 03:12:35;;;;;;;;;;;;;;;12.49;100.00;101402.91;5017381;28;19917;-40
2022/10/02 03:15:01;;;;;;;;;;;;;;;12.49;100.00;101403.78;5018183;28;19975;-39
2022/10/02 03:17:32;;;;;;;;;;;;;;;12.52;100.00;101407.13;5018384;28;19925;-39
2022/10/02 03:19:57;;;;;;;;;;;;;;;12.57;100.00;101412.84;5018477;28;20319;-40
2022/10/02 03:22:34;;;;;;;;;;;;;;;12.60;100.00;101412.53;5013964;28;19921;-41
2022/10/02 03:25:06;;;;;;;;;;;;;;;12.62;100.00;101402.50;5018855;28;19913;-40
2022/10/02 03:27:42;;;;;;;;;;;;;;;12.64;100.00;101417.41;5013340;28;20388;-41
2022/10/02 03:30:08;;;;;;;;;;;;;;;12.68;100.00;101415.25;5016985;28;19928;-43
2022/10/02 03:32:34;;;;;;;;;;;;;;;12.71;100.00;101414.91;5017871;28;19928;-41
2022/10/02 03:35:00;;;;;;;;;;;;;;;12.69;100.00;101411.56;5018468;28;19913;-40
2022/10/02 03:37:26;;;;;;;;;;;;;;;12.68;100.00;101413.41;5016617;28;20154;-41
2022/10/02 03:39:52;;;;;;;;;;;;;;;12.69;100.00;101417.78;5017831;28;20019;-40
2022/10/02 03:42:21;;;;;;;;;;;;;;;12.69;100.00;101424.97;5017222;28;19920;-41
2022/10/02 03:44:47;;;;;;;;;;;;;;;12.67;100.00;101417.06;5016215;28;19917;-42
2022/10/02 03:47:12;;;;;;;;;;;;;;;12.67;100.00;101414.41;5016424;28;19917;-41
2022/10/02 03:49:37;;;;;;;;;;;;;;;12.68;100.00;101423.28;5015562;28;20305;-43
2022/10/02 03:52:02;;;;;;;;;;;;;;;12.65;100.00;101412.91;5017829;28;20433;-39
2022/10/02 03:54:30;;;;;;;;;;;;;;;12.65;100.00;101421.75;5016359;28;20332;-42
2022/10/02 03:56:56;;;;;;;;;;;;;;;12.64;100.00;101422.78;5015836;28;19959;-41
2022/10/02 03:59:31;;;;;;;;;;;;;;;12.62;100.00;101426.59;5016011;28;19989;-40
2022/10/02 04:01:58;;;;;;;;;;;;;;;12.60;100.00;101421.41;5017082;28;20029;-40
2022/10/02 04:04:28;;;;;;;;;;;;;;;12.60;100.00;101426.75;5016354;28;19921;-41
2022/10/02 04:06:59;;;;;;;;;;;;;;;12.60;100.00;101426.75;5016582;28;19925;-42
2022/10/02 04:09:47;;;;;;;;;;;;;;;12.61;100.00;101430.28;5016684;28;20032;-42
2022/10/02 04:12:15;;;;;;;;;;;;;;;12.61;100.00;101425.78;5003428;28;20024;-42
2022/10/02 04:15:03;;;;;;;;;;;;;;;12.59;100.00;101421.56;5015954;28;20003;-42
2022/10/02 04:17:37;;;;;;;;;;;;;;;12.52;100.00;101409.81;5016107;28;20224;-39
2022/10/02 04:20:06;;;;;;;;;;;;;;;12.49;100.00;101414.50;5016347;28;19985;-42
2022/10/02 04:22:31;;;;;;;;;;;;;;;12.40;100.00;101407.41;5016346;28;19976;-39
2022/10/02 04:25:11;;;;;;;;;;;;;;;12.42;100.00;101418.81;5016813;28;19961;-41
2022/10/02 04:27:43;;;;;;;;;;;;;;;12.39;100.00;101410.22;5012523;28;19917;-40
2022/10/02 04:30:10;;;;;;;;;;;;;;;12.32;100.00;101405.53;5015732;28;19956;-41
2022/10/02 04:32:36;;;;;;;;;;;;;;;12.28;100.00;101412.19;5016764;28;19975;-42
2022/10/02 04:35:15;;;;;;;;;;;;;;;12.27;100.00;101417.69;5015072;28;20119;-41
2022/10/02 04:38:01;;;;;;;;;;;;;;;12.25;100.00;101419.69;5012498;28;19921;-39
2022/10/02 04:40:26;;;;;;;;;;;;;;;12.24;100.00;101424.22;5005418;28;20351;-40
2022/10/02 04:42:54;;;;;;;;;;;;;;;12.24;100.00;101429.59;5010992;28;19913;-41
2022/10/02 04:45:26;;;;;;;;;;;;;;;12.24;100.00;101440.28;5016533;28;20378;-41
2022/10/02 04:48:03;;;;;;;;;;;;;;;12.24;100.00;101444.81;5016469;28;19913;-41
2022/10/02 04:50:52;;;;;;;;;;;;;;;12.22;100.00;101452.16;5016174;28;20355;-40
2022/10/02 04:53:20;;;;;;;;;;;;;;;12.21;100.00;101442.44;5014979;28;20400;-41
2022/10/02 04:55:55;;;;;;;;;;;;;;;12.19;100.00;101447.97;5016686;28;19921;-41
2022/10/02 04:58:39;;;;;;;;;;;;;;;12.17;100.00;101457.13;5015068;28;19989;-42
2022/10/02 05:01:17;;;;;;;;;;;;;;;12.14;100.00;101460.97;5007497;28;19921;-41
2022/10/02 05:03:51;;;;;;;;;;;;;;;12.11;100.00;101462.13;5014289;28;19986;-42
2022/10/02 05:06:16;;;;;;;;;;;;;;;12.15;100.00;101464.50;5015285;28;20299;-41
2022/10/02 05:08:51;;;;;;;;;;;;;;;12.16;100.00;101463.50;5015728;28;20043;-41
2022/10/02 05:11:34;;;;;;;;;;;;;;;12.17;100.00;101462.50;5016640;28;20404;-41
2022/10/02 05:14:25;;;;;;;;;;;;;;;12.21;100.00;101470.06;5015807;28;19917;-43
2022/10/02 05:17:02;;;;;;;;;;;;;;;12.24;100.00;101458.22;5016019;28;20331;-41
2022/10/02 05:19:30;;;;;;;;;;;;;;;12.25;100.00;101451.84;5016361;28;19924;-41
2022/10/02 05:22:03;;;;;;;;;;;;;;;12.27;100.00;101468.59;5015664;28;19967;-41
2022/10/02 05:24:34;;;;;;;;;;;;;;;12.27;100.00;101461.41;5015396;28;19937;-41
2022/10/02 05:27:11;;;;;;;;;;;;;;;12.25;100.00;101465.22;5015368;28;20427;-43
2022/10/02 05:29:43;;;;;;;;;;;;;;;12.24;100.00;101479.63;5015474;28;20342;-41
2022/10/02 05:32:26;;;;;;;;;;;;;;;12.24;100.00;101477.78;5015310;28;19924;-42
2022/10/02 05:34:52;;;;;;;;;;;;;;;12.25;100.00;101475.94;5011941;28;19924;-41
2022/10/02 05:37:36;;;;;;;;;;;;;;;12.27;100.00;101477.47;5015077;28;20003;-42
2022/10/02 05:40:04;;;;;;;;;;;;;;;12.28;100.00;101489.03;5016016;28;19983;-42
2022/10/02 05:42:31;;;;;;;;;;;;;;;12.28;100.00;101489.03;5013886;28;20367;-40
2022/10/02 05:45:02;;;;;;;;;;;;;;;12.29;100.00;101490.72;5015275;28;19963;-42
2022/10/02 05:47:34;;;;;;;;;;;;;;;12.28;100.00;101491.69;5015379;28;19917;-43
2022/10/02 05:50:02;;;;;;;;;;;;;;;12.29;100.00;101488.88;5015978;28;20438;-42
2022/10/02 05:52:36;;;;;;;;;;;;;;;12.31;100.00;101491.41;5011844;28;19928;-42
2022/10/02 05:55:16;;;;;;;;;;;;;;;12.35;100.00;101491.91;5015731;28;19928;-43
2022/10/02 05:57:46;;;;;;;;;;;;;;;12.34;100.00;101493.78;5015015;28;19921;-40
2022/10/02 06:00:14;;;;;;;;;;;;;;;12.36;100.00;101498.97;5014274;28;19967;-40
2022/10/02 06:02:48;;;;;;;;;;;;;;;12.35;100.00;101498.09;5016240;28;19913;-42
2022/10/02 06:05:17;;;;;;;;;;;;;;;12.37;100.00;101497.94;5015210;28;19948;-40
2022/10/02 06:07:44;;;;;;;;;;;;;;;12.37;100.00;101497.94;5014704;28;19972;-42
2022/10/02 06:10:12;;;;;;;;;;;;;;;12.36;100.00;101498.97;5015977;28;20637;-41
2022/10/02 06:12:41;;;;;;;;;;;;;;;12.38;100.00;101508.50;5013722;28;19948;-39
2022/10/02 06:15:24;;;;;;;;;;;;;;;12.42;100.00;101522.44;5013881;28;19963;-39
2022/10/02 06:17:53;;;;;;;;;;;;;;;12.48;100.00;101524.50;5005666;28;20487;-40
2022/10/02 06:20:27;;;;;;;;;;;;;;;12.55;100.00;101530.06;5014366;28;19948;-41
2022/10/02 06:23:10;;;;;;;;;;;;;;;12.61;100.00;101530.28;5017026;28;19948;-42
2022/10/02 06:25:39;;;;;;;;;;;;;;;12.66;100.00;101535.16;5017765;28;20287;-41
2022/10/02 06:28:10;;;;;;;;;;;;;;;12.70;100.00;101525.81;5006378;28;20130;-41
2022/10/02 06:30:37;;;;;;;;;;;;;;;12.74;100.00;101520.97;5017151;28;20348;-42
2022/10/02 06:33:21;;;;;;;;;;;;;;;12.76;100.00;101522.47;5017572;28;19971;-42
2022/10/02 06:36:05;;;;;;;;;;;;;;;12.79;100.00;101524.84;5018727;28;19913;-40
2022/10/02 06:38:42;;;;;;;;;;;;;;;12.81;100.00;101524.69;5010083;28;20023;-42
2022/10/02 06:41:13;;;;;;;;;;;;;;;12.84;100.00;101522.53;5013983;28;20434;-40
2022/10/02 06:43:59;;;;;;;;;;;;;;;12.87;100.00;101524.06;5018705;28;20257;-42
2022/10/02 06:46:38;;;;;;;;;;;;;;;12.90;100.00;101534.47;5017854;28;19928;-41
2022/10/02 06:49:10;;;;;;;;;;;;;;;12.95;100.00;101544.69;5019146;28;19944;-43
2022/10/02 06:51:53;;;;;;;;;;;;;;;12.98;100.00;101550.59;5019336;28;19917;-41
2022/10/02 06:54:37;;;;;;;;;;;;;;;13.01;100.00;101546.75;5018161;28;19917;-41
2022/10/02 06:57:32;;;;;;;;;;;;;;;13.02;100.00;101551.13;5017194;28;19939;-42
2022/10/02 07:00:15;;;;;;;;;;;;;;;13.03;100.00;101561.69;5015896;28;20443;-42
2022/10/02 07:02:43;;;;;;;;;;;;;;;13.08;100.00;101563.88;5019629;28;19917;-40
2022/10/02 07:05:27;;;;;;;;;;;;;;;13.11;100.00;101560.88;5018480;28;19950;-42
2022/10/02 07:08:16;;;;;;;;;;;;;;;13.16;100.00;101571.13;5017214;28;20371;-44
2022/10/02 07:10:49;;;;;;;;;;;;;;;13.22;100.00;101565.97;5018970;28;19924;-42
2022/10/02 07:13:15;;;;;;;;;;;;;;;13.27;100.00;101568.16;5016922;28;19906;-42
2022/10/02 07:16:06;;;;;;;;;;;;;;;13.29;100.00;101568.00;5018656;28;20012;-42
2022/10/02 07:18:31;;;;;;;;;;;;;;;13.34;100.00;101560.31;5018404;28;19928;-42
2022/10/02 07:21:02;;;;;;;;;;;;;;;13.35;100.00;101557.50;5017775;28;19921;-44
2022/10/02 07:23:50;;;;;;;;;;;;;;;13.36;100.00;101567.22;5017391;28;19982;-44
2022/10/02 07:26:24;;;;;;;;;;;;;;;13.39;100.00;101574.09;5010026;28;19990;-43
2022/10/02 07:29:12;;;;;;;;;;;;;;;13.40;100.00;101586.53;5016444;28;19940;-40
2022/10/02 07:31:44;;;;;;;;;;;;;;;13.42;100.00;101580.00;5015077;28;19921;-42
2022/10/02 07:34:19;;;;;;;;;;;;;;;13.46;100.00;101577.84;5011633;28;19916;-39
2022/10/02 07:37:03;;;;;;;;;;;;;;;13.50;100.00;101581.88;5017498;28;20133;-40
2022/10/02 07:39:48;;;;;;;;;;;;;;;13.54;100.00;101585.06;5017193;28;20056;-42
2022/10/02 07:42:22;;;;;;;;;;;;;;;13.61;100.00;101580.72;5015221;28;19939;-41
2022/10/02 07:44:47;;;;;;;;;;;;;;;13.68;100.00;101591.66;5017138;28;20368;-42
2022/10/02 07:47:31;;;;;;;;;;;;;;;13.74;100.00;101580.25;5016598;28;20019;-43
2022/10/02 07:50:05;;;;;;;;;;;;;;;13.84;100.00;101589.00;5017786;28;19917;-42
2022/10/02 07:52:30;;;;;;;;;;;;;;;13.98;100.00;101590.22;5008762;28;20258;-41
2022/10/02 07:54:56;;;;;;;;;;;;;;;14.10;100.00;101593.41;5015899;28;20009;-41
2022/10/02 07:57:43;;;;;;;;;;;;;;;14.24;100.00;101589.22;5017314;28;19928;-41
2022/10/02 08:00:11;;;;;;;;;;;;;;;14.37;100.00;101597.63;5017349;28;19917;-40
2022/10/02 08:02:39;;;;;;;;;;;;;;;14.40;100.00;101588.41;5017762;28;20375;-42
2022/10/02 08:05:14;;;;;;;;;;;;;;;14.44;100.00;101601.31;5017157;28;20392;-40
2022/10/02 08:07:39;;;;;;;;;;;;;;;14.45;100.00;101600.34;5017068;28;19951;-42
2022/10/02 08:10:07;;;;;;;;;;;;;;;14.48;100.00;101605.38;5017713;28;19925;-41
2022/10/02 08:13:01;;;;;;;;;;;;;;;14.50;100.00;101614.09;5015732;28;20003;-40
2022/10/02 08:15:32;;;;;;;;;;;;;;;14.51;100.00;101618.47;4999342;28;19979;-42
2022/10/02 08:17:59;;;;;;;;;;;;;;;14.56;100.00;101617.97;5017170;28;20434;-41
2022/10/02 08:20:30;;;;;;;;;;;;;;;14.59;100.00;101632.97;5017028;28;20435;-40
2022/10/02 08:23:18;;;;;;;;;;;;;;;14.59;100.00;101633.78;5013770;28;19917;-41
2022/10/02 08:26:02;;;;;;;;;;;;;;;14.62;100.00;101638.00;5013073;28;20011;-40
2022/10/02 08:28:35;;;;;;;;;;;;;;;14.62;100.00;101633.47;5013289;28;20418;-41
2022/10/02 08:31:00;;;;;;;;;;;;;;;14.65;100.00;101638.50;5015874;28;19928;-39
2022/10/02 08:33:29;;;;;;;;;;;;;;;14.70;100.00;101641.53;5005686;28;20066;-40
2022/10/02 08:36:15;;;;;;;;;;;;;;;14.79;100.00;101646.91;5014572;28;20006;-40
2022/10/02 08:38:45;;;;;;;;;;;;;;;14.81;100.00;101642.19;5015039;28;20188;-40
2022/10/02 08:41:10;;;;;;;;;;;;;;;14.82;100.00;101646.56;5017147;28;20311;-42
2022/10/02 08:43:43;;;;;;;;;;;;;;;14.84;100.00;101655.31;5016306;28;19917;-40
2022/10/02 08:46:27;;;;;;;;;;;;;;;14.87;100.00;101655.81;5014025;28;20412;-40
2022/10/02 08:49:16;;;;;;;;;;;;;;;14.98;100.00;101659.16;5015414;28;19924;-41
2022/10/02 08:51:54;;;;;;;;;;;;;;;15.06;100.00;101656.44;5013191;28;19917;-43
2022/10/02 08:54:23;;;;;;;;;;;;;;;15.11;100.00;101676.44;5007199;28;20095;-41
2022/10/02 08:56:48;;;;;;;;;;;;;;;15.09;100.00;101681.16;5013747;28;19917;-40
2022/10/02 08:59:40;;;;;;;;;;;;;;;15.06;100.00;101677.97;5016240;28;20259;-42
2022/10/02 09:02:18;;;;;;;;;;;;;;;15.06;100.00;101672.59;5014681;28;19945;-43
2022/10/02 09:04:57;;;;;;;;;;;;;;;15.07;100.00;101685.00;5016768;28;19925;-42
2022/10/02 09:07:41;;;;;;;;;;;;;;;15.04;100.00;101696.16;5014406;28;19923;-40
2022/10/02 09:10:12;;;;;;;;;;;;;;;15.04;100.00;101691.59;5014991;28;19961;-41
2022/10/02 09:12:57;;;;;;;;;;;;;;;15.05;100.00;101692.41;5015807;28;19976;-40
2022/10/02 09:15:31;;;;;;;;;;;;;;;15.13;100.00;101692.41;5017715;28;19917;-42
2022/10/02 09:17:57;;;;;;;;;;;;;;;15.25;100.00;101688.34;5012920;28;19944;-40
2022/10/02 09:20:28;;;;;;;;;;;;;;;15.44;100.00;101692.53;5016681;28;19921;-42
2022/10/02 09:23:14;;;;;;;;;;;;;;;15.65;100.00;101689.25;5015272;28;19917;-40
2022/10/02 09:25:52;;;;;;;;;;;;;;;15.84;100.00;101696.13;5002320;28;20019;-43
2022/10/02 09:28:20;;;;;;;;;;;;;;;15.93;100.00;101688.00;5004008;28;19920;-41
2022/10/02 09:31:04;;;;;;;;;;;;;;;15.89;100.00;101692.06;5007198;28;20411;-41
2022/10/02 09:33:44;;;;;;;;;;;;;;;15.84;100.00;101690.72;5008541;28;20176;-43
2022/10/02 09:36:09;;;;;;;;;;;;;;;15.87;100.00;101683.31;5007230;28;20088;-42
2022/10/02 09:38:57;;;;;;;;;;;;;;;15.89;100.00;101686.69;5010043;28;20080;-43
2022/10/02 09:41:40;;;;;;;;;;;;;;;15.95;100.00;101694.88;5008047;28;20269;-42
2022/10/02 09:44:05;;;;;;;;;;;;;;;16.09;100.00;101700.53;5005759;28;20137;-41
2022/10/02 09:46:51;;;;;;;;;;;;;;;16.16;100.00;101698.84;5008959;28;19921;-43
2022/10/02 09:49:33;;;;;;;;;;;;;;;16.22;100.00;101706.19;5008215;28;19975;-40
2022/10/02 09:52:04;;;;;;;;;;;;;;;16.28;100.00;101710.88;5011389;28;20380;-43
2022/10/02 09:54:48;;;;;;;;;;;;;;;16.30;100.00;101708.84;5009844;28;19932;-40
2022/10/02 09:57:29;;;;;;;;;;;;;;;16.32;100.00;101717.59;5000657;28;20242;-40
2022/10/02 10:00:01;;;;;;;;;;;;;;;16.38;100.00;101710.66;4998197;28;19921;-40
2022/10/02 10:02:26;;;;;;;;;;;;;;;16.56;100.00;101724.72;5007084;28;20003;-42
2022/10/02 10:05:04;;;;;;;;;;;;;;;16.78;100.00;101714.94;5009251;28;20438;-42
2022/10/02 10:07:48;;;;;;;;;;;;;;;16.93;100.00;101717.69;5006378;28;20265;-42
2022/10/02 10:10:13;;;;;;;;;;;;;;;16.98;100.00;101714.44;5002588;28;19935;-42
2022/10/02 10:13:02;;;;;;;;;;;;;;;17.13;100.00;101722.59;5009811;28;20320;-41
2022/10/02 10:15:33;;;;;;;;;;;;;;;17.28;100.00;101718.06;5015007;28;19917;-41
2022/10/02 10:18:09;;;;;;;;;;;;;;;17.30;100.00;101728.66;5011818;28;19913;-41
2022/10/02 10:20:53;;;;;;;;;;;;;;;17.16;100.00;101733.03;5018801;28;21250;-41
2022/10/02 10:23:27;;;;;;;;;;;;;;;16.92;100.00;101726.81;5017673;28;20445;-40
2022/10/02 10:25:58;;;;;;;;;;;;;;;16.76;100.00;101735.00;5015461;28;19925;-41
2022/10/02 10:28:42;;;;;;;;;;;;;;;16.68;100.00;101740.44;5013786;28;19913;-41
2022/10/02 10:31:16;;;;;;;;;;;;;;;16.63;100.00;101746.38;5011150;28;19921;-42
2022/10/02 10:33:53;;;;;;;;;;;;;;;16.53;100.00;101748.47;5012885;28;19995;-42
2022/10/02 10:39:19;;;;;;;;;;;;;;;16.59;100.00;101753.16;5005514;28;19923;-43
2022/10/02 10:42:10;;;;;;;;;;;;;;;16.76;100.00;101753.88;4999233;28;19981;-42
2022/10/02 10:44:35;;;;;;;;;;;;;;;16.86;100.00;101757.22;5007007;28;20326;-42
2022/10/02 10:47:17;;;;;;;;;;;;;;;16.99;100.00;101750.34;5014939;28;19917;-41
2022/10/02 10:50:07;;;;;;;;;;;;;;;17.09;100.00;101770.69;5012315;28;19929;-43
2022/10/02 10:52:38;;;;;;;;;;;;;;;17.07;100.00;101763.78;5015944;28;19917;-41
2022/10/02 10:55:21;;;;;;;;;;;;;;;17.19;100.00;101767.72;5015006;28;20392;-41
2022/10/02 10:58:11;;;;;;;;;;;;;;;17.37;100.00;101762.00;5016447;28;20799;-41
2022/10/02 11:00:36;;;;;;;;;;;;;;;17.56;100.00;101770.59;5002319;28;19921;-41
2022/10/02 11:03:20;;;;;;;;;;;;;;;17.58;99.87;101763.16;5012490;28;19933;-41
2022/10/02 11:06:04;;;;;;;;;;;;;;;17.53;100.00;101763.69;4999750;28;19922;-41
2022/10/02 11:08:42;;;;;;;;;;;;;;;17.57;100.00;101758.78;5017512;28;20471;-42
2022/10/02 11:11:27;;;;;;;;;;;;;;;17.64;100.00;101767.81;5001475;28;19959;-43
2022/10/02 11:14:04;;;;;;;;;;;;;;;17.66;100.00;101766.59;5004260;28;19924;-40
2022/10/02 11:16:42;;;;;;;;;;;;;;;17.75;100.00;101769.22;5010767;28;19918;-41
2022/10/02 11:19:20;;;;;;;;;;;;;;;17.83;100.00;101767.25;5010749;28;19963;-42
2022/10/02 11:22:05;;;;;;;;;;;;;;;17.82;100.00;101771.00;5010150;28;20012;-41
2022/10/02 11:24:49;;;;;;;;;;;;;;;17.68;100.00;101780.78;5002507;28;19955;-40
2022/10/02 11:27:27;;;;;;;;;;;;;;;17.40;97.99;101780.53;5002289;28;20640;-40
2022/10/02 11:30:00;;;;;;;;;;;;;;;17.22;100.00;101782.72;5015223;28;19920;-40
2022/10/02 11:32:34;;;;;;;;;;;;;;;17.07;100.00;101782.69;5012423;28;19926;-41
2022/10/02 11:35:16;;;;;;;;;;;;;;;16.92;100.00;101788.00;5014659;28;19992;-42
2022/10/02 11:37:53;;;;;;;;;;;;;;;16.80;100.00;101790.25;5014614;28;19936;-43
2022/10/02 11:40:21;;;;;;;;;;;;;;;16.78;100.00;101792.31;5007049;28;19928;-42
2022/10/02 11:43:10;;;;;;;;;;;;;;;16.81;100.00;101793.81;5007065;28;19921;-41
2022/10/02 11:45:36;;;;;;;;;;;;;;;16.82;100.00;101790.09;5012399;28;20045;-43
2022/10/02 11:48:15;;;;;;;;;;;;;;;16.86;100.00;101788.75;5014329;28;20004;-44
2022/10/02 11:50:46;;;;;;;;;;;;;;;16.86;100.00;101804.94;5013608;28;20182;-42
2022/10/02 11:53:28;;;;;;;;;;;;;;;16.86;100.00;101797.69;5012565;28;20318;-42
2022/10/02 11:55:53;;;;;;;;;;;;;;;16.92;100.00;101796.13;5014396;28;20128;-43
2022/10/02 11:58:42;;;;;;;;;;;;;;;16.98;100.00;101791.88;5014944;28;19923;-42
2022/10/02 12:01:15;;;;;;;;;;;;;;;17.08;100.00;101804.09;5015191;28;20420;-41
2022/10/02 12:04:02;;;;;;;;;;;;;;;17.33;100.00;101796.63;5013247;28;19917;-42
2022/10/02 12:06:28;;;;;;;;;;;;;;;17.71;100.00;101803.88;5007989;28;19956;-41
2022/10/02 12:08:56;;;;;;;;;;;;;;;18.07;100.00;101803.16;5009850;28;19969;-42
2022/10/02 12:11:36;;;;;;;;;;;;;;;18.37;100.00;101811.25;5003963;28;19923;-41
2022/10/02 12:14:20;;;;;;;;;;;;;;;18.66;97.04;101807.63;5006493;28;19949;-40
2022/10/02 12:16:51;;;;;;;;;;;;;;;18.86;91.31;101818.69;5010582;28;19917;-41
2022/10/02 12:19:22;;;;;;;;;;;;;;;18.96;91.35;101812.97;5010101;28;20303;-42
2022/10/02 12:28:00;;;;;;;;;;;;;;;19.59;89.37;101826.66;5010617;28;19948;-42
2022/10/02 12:30:31;;;;;;;;;;;;;;;19.99;84.92;101818.78;5011872;28;20028;-42
2022/10/02 12:33:08;;;;;;;;;;;;;;;20.48;87.64;101823.22;5005233;28;19921;-45
2022/10/02 12:35:39;;;;;;;;;;;;;;;20.49;81.97;101824.88;5017425;28;20028;-41
2022/10/02 12:38:04;;;;;;;;;;;;;;;19.80;85.36;101812.22;5012385;28;19971;-41
2022/10/02 12:40:48;;;;;;;;;;;;;;;19.82;86.73;101818.28;5015452;28;20378;-46
2022/10/02 12:43:15;;;;;;;;;;;;;;;20.15;86.00;101814.94;5013620;28;19963;-42
2022/10/02 12:45:59;;;;;;;;;;;;;;;20.18;87.25;101832.66;5012934;28;19928;-45
2022/10/02 12:48:36;;;;;;;;;;;;;;;20.29;85.47;101824.78;5014037;28;19927;-41
2022/10/02 12:51:15;;;;;;;;;;;;;;;20.95;83.44;101814.38;5012129;28;19917;-43
2022/10/02 12:54:07;;;;;;;;;;;;;;;21.51;79.39;101826.78;5012157;28;19924;-43
2022/10/02 12:56:44;;;;;;;;;;;;;;;21.72;75.45;101825.69;5013543;28;20474;-41
2022/10/02 12:59:15;;;;;;;;;;;;;;;21.66;72.73;101829.28;5004358;28;20010;-42
2022/10/02 13:01:53;;;;;;;;;;;;;;;21.87;70.48;101837.16;5008768;28;19937;-43
2022/10/02 13:04:25;;;;;;;;;;;;;;;22.06;75.31;101843.59;5012949;28;20340;-43
2022/10/02 13:06:53;;;;;;;;;;;;;;;22.70;69.90;101841.09;5020390;28;19921;-44
2022/10/02 13:09:25;;;;;;;;;;;;;;;23.03;71.35;101834.59;5014138;28;19913;-46
2022/10/02 13:12:09;;;;;;;;;;;;;;;23.51;66.26;101844.16;5005168;28;19924;-42
2022/10/02 13:14:52;;;;;;;;;;;;;;;24.02;57.19;101843.84;5011938;28;19921;-41